createdAt,value
2023-07-22T00:00:00.947Z,5.50
2023-07-22T00:02:29.015Z,5.63
2023-07-22T00:04:57.143Z,6.05
2023-07-22T00:07:25.159Z,5.63
2023-07-22T00:09:53.183Z,5.97
2023-07-22T00:12:21.200Z,5.80
2023-07-22T00:14:49.186Z,5.70
2023-07-22T00:17:18.751Z,5.55
2023-07-22T00:19:46.837Z,6.05
2023-07-22T00:22:14.822Z,5.32
2023-07-22T00:24:42.871Z,5.65
2023-07-22T00:27:11.569Z,6.18
2023-07-22T00:29:39.593Z,5.90
2023-07-22T00:32:09.924Z,5.90
2023-07-22T00:34:39.329Z,6.28
2023-07-22T00:37:07.426Z,6.18
2023-07-22T00:39:35.359Z,6.38
2023-07-22T00:42:03.312Z,5.95
2023-07-22T00:44:31.677Z,6.50
2023-07-22T00:47:00.437Z,6.40
2023-07-22T00:49:29.964Z,5.97
2023-07-22T00:52:02.855Z,5.93
2023-07-22T00:54:32.073Z,5.68
2023-07-22T00:57:00.405Z,6.03
2023-07-22T00:59:29.191Z,6.28
2023-07-22T01:01:57.258Z,6.50
2023-07-22T01:04:26.433Z,5.43
2023-07-22T01:06:55.324Z,6.60
2023-07-22T01:09:24.693Z,6.07
2023-07-22T01:11:52.666Z,5.93
2023-07-22T01:14:20.640Z,6.65
2023-07-22T01:16:48.837Z,6.20
2023-07-22T01:19:20.006Z,6.15
2023-07-22T01:21:50.361Z,6.60
2023-07-22T01:24:20.104Z,6.35
2023-07-22T01:26:49.017Z,6.38
2023-07-22T01:29:17.059Z,6.15
2023-07-22T01:31:49.317Z,6.40
2023-07-22T01:34:18.168Z,6.28
2023-07-22T01:36:48.608Z,6.22
2023-07-22T01:39:16.944Z,6.50
2023-07-22T01:41:46.676Z,6.50
2023-07-22T01:44:14.704Z,6.30
2023-07-22T01:46:43.274Z,6.00
2023-07-22T01:49:13.792Z,6.30
2023-07-22T01:51:42.561Z,6.50
2023-07-22T01:54:11.463Z,6.57
2023-07-22T01:56:39.937Z,6.57
2023-07-22T01:59:11.323Z,6.38
2023-07-22T02:01:39.833Z,6.82
2023-07-22T02:04:08.102Z,6.25
2023-07-22T02:06:36.572Z,6.32
2023-07-22T02:09:09.730Z,7.20
2023-07-22T02:11:38.050Z,6.90
2023-07-22T02:14:08.340Z,6.50
2023-07-22T02:16:38.974Z,6.82
2023-07-22T02:19:07.669Z,6.75
2023-07-22T02:21:35.776Z,7.82
2023-07-22T02:24:03.817Z,6.88
2023-07-22T02:26:31.921Z,6.72
2023-07-22T02:28:59.930Z,6.93
2023-07-22T02:31:28.059Z,7.15
2023-07-22T02:33:57.493Z,6.72
2023-07-22T02:36:25.775Z,7.15
2023-07-22T02:38:54.150Z,7.10
2023-07-22T02:41:22.975Z,6.90
2023-07-22T02:43:51.165Z,7.25
2023-07-22T02:46:19.306Z,6.97
2023-07-22T02:48:47.475Z,6.95
2023-07-22T02:51:16.881Z,7.45
2023-07-22T02:53:45.815Z,6.88
2023-07-22T02:56:14.239Z,7.05
2023-07-22T02:58:43.103Z,7.00
2023-07-22T03:01:11.592Z,7.05
2023-07-22T03:03:41.170Z,7.68
2023-07-22T03:06:10.928Z,6.55
2023-07-22T03:08:40.414Z,7.25
2023-07-22T03:11:08.561Z,7.13
2023-07-22T03:13:36.637Z,7.30
2023-07-22T03:16:05.933Z,7.70
2023-07-22T03:18:34.147Z,7.70
2023-07-22T03:21:02.235Z,7.88
2023-07-22T03:23:30.345Z,7.43
2023-07-22T03:25:59.718Z,7.55
2023-07-22T03:28:28.084Z,7.15
2023-07-22T03:30:56.152Z,7.13
2023-07-22T03:33:24.208Z,7.82
2023-07-22T03:35:52.285Z,8.07
2023-07-22T03:38:20.332Z,7.88
2023-07-22T03:40:48.699Z,7.75
2023-07-22T03:43:18.436Z,7.80
2023-07-22T03:45:46.573Z,7.72
2023-07-22T03:48:14.764Z,7.38
2023-07-22T03:50:42.830Z,7.50
2023-07-22T03:53:10.862Z,8.10
2023-07-22T03:55:38.882Z,8.32
2023-07-22T03:58:06.832Z,7.70
2023-07-22T04:00:36.281Z,8.45
2023-07-22T04:03:04.653Z,8.20
2023-07-22T04:05:32.791Z,8.77
2023-07-22T04:08:00.783Z,8.27
2023-07-22T04:10:28.728Z,7.80
2023-07-22T04:12:56.801Z,8.77
2023-07-22T04:15:24.924Z,8.40
2023-07-22T04:17:55.155Z,9.00
2023-07-22T04:20:25.495Z,8.73
2023-07-22T04:22:53.492Z,10.07
2023-07-22T04:25:21.624Z,9.80
2023-07-22T04:27:49.809Z,10.60
2023-07-22T04:30:21.801Z,8.52
2023-07-22T04:32:50.487Z,9.60
2023-07-22T04:35:20.175Z,8.05
2023-07-22T04:37:48.627Z,9.38
2023-07-22T04:40:19.458Z,9.10
2023-07-22T04:42:47.708Z,8.30
2023-07-22T04:45:15.797Z,8.90
2023-07-22T04:47:45.690Z,8.45
2023-07-22T04:50:14.012Z,8.63
2023-07-22T04:52:44.795Z,7.93
2023-07-22T04:55:13.310Z,8.75
2023-07-22T04:57:42.437Z,7.90
2023-07-22T05:00:13.253Z,8.93
2023-07-22T05:02:41.467Z,8.45
2023-07-22T05:05:10.721Z,8.68
2023-07-22T05:07:38.785Z,9.05
2023-07-22T05:10:13.338Z,8.90
2023-07-22T05:12:41.783Z,8.30
2023-07-22T05:15:12.202Z,8.45
2023-07-22T05:17:40.594Z,9.05
2023-07-22T05:20:11.279Z,8.13
2023-07-22T05:22:39.650Z,8.45
2023-07-22T05:25:10.848Z,8.60
2023-07-22T05:27:39.325Z,8.63
2023-07-22T05:30:16.084Z,8.38
2023-07-22T05:32:48.418Z,8.57
2023-07-22T05:35:16.495Z,8.40
2023-07-22T05:37:44.433Z,8.57
2023-07-22T05:40:14.101Z,8.15
2023-07-22T05:42:42.385Z,8.90
2023-07-22T05:45:14.876Z,7.28
2023-07-22T05:47:43.079Z,8.50
2023-07-22T05:50:11.783Z,8.25
2023-07-22T05:52:40.325Z,7.95
2023-07-22T05:55:08.814Z,8.25
2023-07-22T05:57:38.612Z,8.85
2023-07-22T06:00:09.981Z,8.30
2023-07-22T06:02:38.649Z,8.13
2023-07-22T06:05:07.254Z,8.05
2023-07-22T06:07:35.439Z,8.15
2023-07-22T06:10:03.952Z,8.27
2023-07-22T06:12:32.270Z,9.32
2023-07-22T06:15:02.162Z,9.15
2023-07-22T06:17:30.249Z,8.50
2023-07-22T06:19:58.617Z,8.48
2023-07-22T06:22:26.692Z,7.93
2023-07-22T06:24:54.869Z,8.20
2023-07-22T06:27:23.251Z,9.85
2023-07-22T06:29:51.279Z,9.48
2023-07-22T06:32:20.858Z,13.27
2023-07-22T06:34:48.880Z,9.90
2023-07-22T06:37:16.893Z,9.75
2023-07-22T06:39:44.921Z,8.60
2023-07-22T06:42:12.853Z,10.13
2023-07-22T06:44:41.204Z,9.43
2023-07-22T06:47:09.431Z,9.40
2023-07-22T06:49:38.978Z,8.90
2023-07-22T06:52:08.537Z,8.35
2023-07-22T06:54:37.287Z,8.73
2023-07-22T06:57:07.391Z,8.25
2023-07-22T06:59:35.486Z,8.77
2023-07-22T07:02:03.533Z,8.25
2023-07-22T07:04:31.618Z,8.32
2023-07-22T07:07:01.444Z,9.48
2023-07-22T07:09:47.868Z,8.60
2023-07-22T07:12:15.962Z,10.40
2023-07-22T07:14:44.451Z,9.45
2023-07-22T07:17:12.610Z,10.05
2023-07-22T07:19:40.648Z,9.77
2023-07-22T07:22:10.338Z,8.70
2023-07-22T07:24:38.532Z,9.85
2023-07-22T07:27:07.340Z,9.63
2023-07-22T07:29:51.942Z,10.25
2023-07-22T07:32:21.680Z,10.50
2023-07-22T07:34:49.858Z,10.57
2023-07-22T07:37:19.438Z,9.68
2023-07-22T07:39:47.578Z,10.18
2023-07-22T07:42:15.616Z,9.98
2023-07-22T07:44:44.790Z,9.52
2023-07-22T07:47:12.885Z,9.93
2023-07-22T07:49:41.750Z,10.10
2023-07-22T07:52:09.894Z,10.43
2023-07-22T07:54:39.409Z,9.77
2023-07-22T07:57:08.538Z,10.40
2023-07-22T07:59:39.390Z,10.52
2023-07-22T08:02:10.851Z,10.63
2023-07-22T08:04:38.915Z,9.85
2023-07-22T08:07:09.025Z,10.65
2023-07-22T08:09:37.431Z,16.33
2023-07-22T08:12:07.572Z,10.52
2023-07-22T08:14:35.841Z,10.60
2023-07-22T08:17:05.129Z,9.63
2023-07-22T08:19:33.267Z,10.52
2023-07-22T08:22:01.722Z,10.60
2023-07-22T08:24:29.857Z,11.02
2023-07-22T08:26:57.952Z,11.00
2023-07-22T08:29:27.815Z,11.70
2023-07-22T08:31:55.922Z,11.27
2023-07-22T08:34:24.127Z,10.80
2023-07-22T08:36:53.871Z,11.25
2023-07-22T08:39:21.881Z,10.55
2023-07-22T08:41:51.382Z,11.30
2023-07-22T08:44:24.801Z,10.13
2023-07-22T08:46:58.532Z,12.00
2023-07-22T08:49:27.923Z,10.10
2023-07-22T08:51:57.992Z,10.95
2023-07-22T08:54:26.449Z,10.98
2023-07-22T08:56:55.906Z,11.10
2023-07-22T08:59:24.340Z,11.60
2023-07-22T09:01:55.098Z,10.93
2023-07-22T09:04:23.227Z,11.10
2023-07-22T09:06:51.969Z,11.48
2023-07-22T09:09:20.397Z,11.25
2023-07-22T09:11:49.510Z,11.27
2023-07-22T09:14:35.821Z,11.50
2023-07-22T09:17:07.481Z,11.15
2023-07-22T09:19:35.511Z,10.60
2023-07-22T09:22:03.860Z,11.10
2023-07-22T09:24:31.964Z,11.05
2023-07-22T09:27:01.724Z,11.05
2023-07-22T09:29:37.538Z,10.77
2023-07-22T09:32:07.738Z,10.63
2023-07-22T09:34:35.800Z,11.57
2023-07-22T09:37:05.046Z,11.80
2023-07-22T09:39:33.465Z,11.00
2023-07-22T09:42:03.230Z,12.48
2023-07-22T09:44:34.115Z,11.13
2023-07-22T09:47:09.077Z,10.93
2023-07-22T09:49:42.675Z,10.55
2023-07-22T09:52:14.683Z,11.25
2023-07-22T09:54:50.011Z,11.10
2023-07-22T09:57:19.058Z,11.48
2023-07-22T09:59:50.017Z,11.98
2023-07-22T10:02:21.451Z,11.80
2023-07-22T10:04:53.437Z,12.32
2023-07-22T10:07:22.920Z,15.90
2023-07-22T10:09:51.899Z,11.90
2023-07-22T10:12:19.991Z,12.50
2023-07-22T10:14:48.831Z,11.68
2023-07-22T10:17:18.075Z,11.25
2023-07-22T10:19:47.797Z,11.82
2023-07-22T10:22:16.406Z,11.25
2023-07-22T10:24:47.705Z,11.48
2023-07-22T10:27:19.084Z,11.48
2023-07-22T10:29:48.187Z,11.98
2023-07-22T10:32:18.375Z,11.35
2023-07-22T10:34:47.821Z,11.48
2023-07-22T10:37:15.923Z,11.25
2023-07-22T10:39:43.980Z,11.50
2023-07-22T10:42:25.739Z,10.90
2023-07-22T10:44:54.241Z,10.68
2023-07-22T10:47:34.251Z,9.75
2023-07-22T10:50:15.752Z,10.40
2023-07-22T10:52:45.998Z,9.20
2023-07-22T10:55:18.646Z,9.27
2023-07-22T10:57:54.379Z,9.07
2023-07-22T11:00:23.411Z,8.65
2023-07-22T11:03:13.771Z,8.57
2023-07-22T11:05:57.207Z,8.65
2023-07-22T11:08:39.011Z,8.65
2023-07-22T11:11:07.462Z,8.95
2023-07-22T11:13:40.757Z,8.65
2023-07-22T11:16:13.208Z,8.80
2023-07-22T11:18:42.459Z,9.30
2023-07-22T11:21:12.497Z,8.95
2023-07-22T11:23:40.496Z,8.38
2023-07-22T11:26:08.512Z,9.50
2023-07-22T11:28:36.587Z,8.65
2023-07-22T11:31:04.669Z,8.27
2023-07-22T11:33:40.986Z,8.82
2023-07-22T11:36:09.064Z,8.07
2023-07-22T11:38:39.948Z,7.68
2023-07-22T11:41:08.118Z,9.10
2023-07-22T11:43:36.794Z,7.47
2023-07-22T11:46:07.498Z,8.00
2023-07-22T11:48:35.645Z,8.50
2023-07-22T11:51:03.949Z,7.68
2023-07-22T11:53:31.966Z,7.55
2023-07-22T11:56:02.153Z,8.43
2023-07-22T11:58:31.529Z,8.15
2023-07-22T12:01:08.836Z,7.57
2023-07-22T12:03:37.192Z,7.57
2023-07-22T12:06:05.768Z,8.55
2023-07-22T12:08:34.598Z,7.78
2023-07-22T12:11:05.229Z,8.00
2023-07-22T12:13:38.741Z,7.85
2023-07-22T12:16:08.257Z,8.40
2023-07-22T12:18:46.364Z,7.90
2023-07-22T12:21:14.805Z,7.57
2023-07-22T12:23:44.141Z,7.47
2023-07-22T12:26:13.510Z,7.55
2023-07-22T12:28:41.725Z,7.72
2023-07-22T12:31:10.824Z,7.72
2023-07-22T12:33:39.010Z,8.23
2023-07-22T12:36:07.564Z,7.47
2023-07-22T12:38:35.779Z,7.22
2023-07-22T12:41:04.286Z,7.10
2023-07-22T12:43:34.611Z,7.57
2023-07-22T12:46:02.669Z,8.10
2023-07-22T12:48:31.512Z,7.90
2023-07-22T12:50:59.735Z,7.70
2023-07-22T12:53:28.564Z,8.02
2023-07-22T12:55:57.771Z,7.78
2023-07-22T12:58:25.956Z,9.15
2023-07-22T13:00:55.461Z,7.55
2023-07-22T13:03:23.676Z,8.23
2023-07-22T13:05:51.765Z,7.22
2023-07-22T13:08:19.785Z,7.18
2023-07-22T13:10:48.489Z,8.07
2023-07-22T13:13:16.638Z,7.25
2023-07-22T13:15:44.710Z,7.88
2023-07-22T13:18:14.914Z,7.80
2023-07-22T13:20:43.076Z,7.72
2023-07-22T13:23:11.297Z,9.68
2023-07-22T13:25:39.406Z,8.65
2023-07-22T13:28:10.279Z,7.63
2023-07-22T13:30:38.396Z,7.80
2023-07-22T13:33:06.481Z,7.80
2023-07-22T13:35:35.919Z,9.50
2023-07-22T13:38:03.991Z,9.45
2023-07-22T13:40:32.101Z,7.65
2023-07-22T13:43:00.231Z,8.20
2023-07-22T13:45:28.844Z,8.23
2023-07-22T13:47:57.029Z,7.45
2023-07-22T13:50:25.228Z,6.63
2023-07-22T13:52:54.715Z,7.47
2023-07-22T13:55:22.917Z,7.32
2023-07-22T13:57:50.920Z,8.98
2023-07-22T14:00:19.497Z,8.00
2023-07-22T14:02:47.727Z,7.20
2023-07-22T14:05:15.811Z,7.90
2023-07-22T14:07:43.824Z,8.00
2023-07-22T14:10:13.621Z,7.75
2023-07-22T14:12:41.683Z,7.65
2023-07-22T14:15:11.384Z,7.20
2023-07-22T14:17:40.134Z,8.13
2023-07-22T14:20:09.242Z,7.20
2023-07-22T14:22:37.302Z,7.03
2023-07-22T14:25:06.043Z,6.95
2023-07-22T14:27:36.093Z,7.10
2023-07-22T14:30:05.318Z,6.72
2023-07-22T14:32:33.558Z,8.20
2023-07-22T14:35:01.728Z,7.45
2023-07-22T14:37:30.207Z,7.07
2023-07-22T14:39:58.243Z,7.38
2023-07-22T14:42:26.322Z,7.38
2023-07-22T14:44:55.787Z,7.00
2023-07-22T14:47:23.901Z,7.45
2023-07-22T14:49:53.494Z,6.55
2023-07-22T14:52:21.884Z,7.28
2023-07-22T14:54:50.258Z,7.30
2023-07-22T14:57:19.397Z,6.45
2023-07-22T14:59:49.753Z,6.57
2023-07-22T15:02:19.354Z,6.57
2023-07-22T15:04:47.349Z,6.88
2023-07-22T15:07:15.510Z,6.75
2023-07-22T15:09:43.588Z,6.85
2023-07-22T15:12:11.662Z,6.68
2023-07-22T15:14:41.914Z,7.05
2023-07-22T15:19:58.498Z,6.40
2023-07-22T15:22:32.829Z,7.50
2023-07-22T15:25:03.595Z,5.95
2023-07-22T15:27:31.598Z,6.68
2023-07-22T15:29:59.630Z,7.40
2023-07-22T15:32:28.309Z,7.45
2023-07-22T15:34:57.783Z,6.95
2023-07-22T15:37:26.047Z,7.20
2023-07-22T15:39:54.198Z,9.00
2023-07-22T15:42:22.214Z,8.68
2023-07-22T15:44:50.325Z,8.25
2023-07-22T15:47:18.808Z,7.47
2023-07-22T15:49:47.016Z,8.98
2023-07-22T15:52:16.396Z,7.88
2023-07-22T15:54:47.571Z,7.43
2023-07-22T15:57:17.986Z,11.18
2023-07-22T15:59:47.967Z,7.60
2023-07-22T16:02:16.446Z,6.68
2023-07-22T16:04:44.809Z,6.65
2023-07-22T16:07:12.868Z,7.03
2023-07-22T16:09:42.529Z,7.00
2023-07-22T16:12:11.220Z,7.18
2023-07-22T16:14:39.510Z,6.80
2023-07-22T16:17:07.911Z,7.47
2023-07-22T16:19:36.122Z,7.57
2023-07-22T16:22:04.296Z,7.43
2023-07-22T16:24:32.445Z,7.25
2023-07-22T16:27:02.237Z,7.18
2023-07-22T16:29:30.238Z,8.15
2023-07-22T16:31:58.343Z,6.75
2023-07-22T16:34:26.587Z,7.45
2023-07-22T16:36:54.679Z,7.25
2023-07-22T16:39:24.052Z,7.00
2023-07-22T16:41:52.458Z,7.35
2023-07-22T16:44:23.690Z,7.13
2023-07-22T16:46:51.791Z,9.30
2023-07-22T16:49:19.864Z,7.97
2023-07-22T16:51:48.337Z,5.30
2023-07-22T16:54:16.410Z,6.15
2023-07-22T16:56:44.482Z,5.18
2023-07-22T16:59:14.167Z,6.18
2023-07-22T17:01:43.720Z,5.88
2023-07-22T17:04:12.217Z,8.70
2023-07-22T17:06:40.809Z,7.13
2023-07-22T17:09:09.334Z,8.85
2023-07-22T17:11:37.389Z,6.70
2023-07-22T17:14:05.471Z,5.25
2023-07-22T17:16:33.484Z,7.18
2023-07-22T17:19:03.153Z,5.82
2023-07-22T17:21:31.705Z,6.70
2023-07-22T17:23:59.668Z,5.30
2023-07-22T17:26:27.714Z,6.13
2023-07-22T17:28:55.824Z,5.47
2023-07-22T17:31:24.196Z,5.57
2023-07-22T17:33:52.308Z,5.32
2023-07-22T17:36:21.775Z,6.03
2023-07-22T17:38:49.977Z,6.10
2023-07-22T17:41:18.211Z,6.50
2023-07-22T17:43:46.211Z,6.38
2023-07-22T17:46:14.456Z,7.28
2023-07-22T17:48:42.475Z,6.15
2023-07-22T17:51:10.440Z,7.10
2023-07-22T17:53:40.250Z,7.20
2023-07-22T17:56:08.370Z,6.68
2023-07-22T17:58:36.356Z,7.50
2023-07-22T18:01:04.719Z,8.32
2023-07-22T18:03:33.279Z,6.80
2023-07-22T18:06:01.301Z,6.03
2023-07-22T18:08:29.304Z,5.85
2023-07-22T18:10:59.006Z,6.40
2023-07-22T18:13:27.076Z,5.82
2023-07-22T18:15:55.111Z,5.65
2023-07-22T18:18:23.300Z,7.93
2023-07-22T18:20:51.276Z,5.45
2023-07-22T18:23:19.271Z,5.80
2023-07-22T18:25:47.225Z,5.57
2023-07-22T18:28:16.599Z,5.20
2023-07-22T18:30:44.638Z,4.97
2023-07-22T18:33:12.761Z,5.50
2023-07-22T18:35:40.854Z,5.78
2023-07-22T18:38:09.225Z,5.70
2023-07-22T18:40:37.242Z,5.80
2023-07-22T18:43:05.400Z,5.15
2023-07-22T18:45:34.867Z,5.30
2023-07-22T18:48:03.937Z,5.30
2023-07-22T18:50:33.692Z,4.78
2023-07-22T18:53:01.737Z,4.55
2023-07-22T18:55:29.781Z,5.25
2023-07-22T18:57:57.846Z,5.10
2023-07-22T19:00:28.299Z,5.10
2023-07-22T19:02:58.612Z,5.43
2023-07-22T19:05:26.716Z,5.45
2023-07-22T19:07:54.879Z,4.85
2023-07-22T19:10:22.953Z,4.88
2023-07-22T19:12:51.015Z,5.43
2023-07-22T19:15:21.132Z,5.18
2023-07-22T19:17:49.461Z,5.60
2023-07-22T19:20:19.211Z,5.93
2023-07-22T19:22:47.462Z,5.97
2023-07-22T19:25:15.617Z,5.53
2023-07-22T19:27:43.745Z,5.75
2023-07-22T19:30:14.361Z,5.63
2023-07-22T19:32:42.469Z,5.07
2023-07-22T19:35:10.853Z,5.65
2023-07-22T19:37:40.295Z,5.00
2023-07-22T19:40:10.055Z,5.85
2023-07-22T19:42:38.048Z,6.55
2023-07-22T19:45:06.953Z,5.45
2023-07-22T19:47:35.279Z,6.05
2023-07-22T19:50:03.466Z,5.95
2023-07-22T19:52:31.498Z,6.10
2023-07-22T19:55:00.896Z,6.68
2023-07-22T19:57:28.986Z,7.30
2023-07-22T19:59:57.786Z,5.97
2023-07-22T20:02:26.030Z,5.50
2023-07-22T20:04:54.317Z,5.85
2023-07-22T20:07:22.350Z,6.03
2023-07-22T20:09:50.373Z,6.20
2023-07-22T20:12:19.762Z,5.28
2023-07-22T20:14:47.862Z,4.95
2023-07-22T20:17:15.884Z,5.32
2023-07-22T20:19:43.940Z,5.22
2023-07-22T20:22:12.449Z,5.50
2023-07-22T20:24:40.763Z,5.35
2023-07-22T20:27:08.860Z,4.72
2023-07-22T20:29:38.322Z,5.68
2023-07-22T20:32:12.493Z,5.75
2023-07-22T20:34:47.584Z,5.88
2023-07-22T20:37:15.613Z,5.28
2023-07-22T20:39:43.620Z,6.03
2023-07-22T20:42:11.693Z,5.85
2023-07-22T20:44:41.071Z,5.38
2023-07-22T20:47:09.148Z,5.85
2023-07-22T20:49:37.190Z,5.55
2023-07-22T20:52:05.875Z,6.43
2023-07-22T20:54:33.991Z,4.78
2023-07-22T20:57:02.017Z,5.28
2023-07-22T20:59:29.961Z,5.57
2023-07-22T21:01:59.407Z,6.40
2023-07-22T21:04:27.432Z,6.95
2023-07-22T21:06:55.422Z,6.30
2023-07-22T21:09:23.437Z,7.88
2023-07-22T21:11:51.435Z,5.60
2023-07-22T21:14:19.428Z,5.40
2023-07-22T21:16:47.472Z,6.28
2023-07-22T21:19:16.882Z,6.32
2023-07-22T21:21:46.179Z,5.32
2023-07-22T21:24:14.615Z,6.68
2023-07-22T21:26:42.642Z,5.78
2023-07-22T21:29:10.608Z,5.78
2023-07-22T21:31:38.616Z,5.72
2023-07-22T21:34:15.111Z,6.03
2023-07-22T21:36:45.104Z,5.50
2023-07-22T21:39:13.131Z,5.80
2023-07-22T21:41:41.398Z,5.85
2023-07-22T21:44:09.597Z,5.90
2023-07-22T21:46:40.286Z,6.00
2023-07-22T21:49:09.487Z,6.00
2023-07-22T21:51:39.193Z,5.93
2023-07-22T21:54:08.597Z,5.72
2023-07-22T21:56:36.698Z,6.07
2023-07-22T21:59:04.793Z,5.80
2023-07-22T22:01:32.943Z,7.10
2023-07-22T22:04:01.006Z,5.97
2023-07-22T22:06:28.973Z,7.00
2023-07-22T22:08:57.106Z,5.45
2023-07-22T22:11:26.735Z,6.07
2023-07-22T22:13:54.933Z,5.90
2023-07-22T22:16:22.991Z,5.75
2023-07-22T22:18:51.027Z,5.93
2023-07-22T22:21:19.036Z,6.70
2023-07-22T22:23:47.026Z,5.88
2023-07-22T22:26:15.119Z,6.60
2023-07-22T22:28:44.475Z,6.93
2023-07-22T22:31:12.595Z,6.78
2023-07-22T22:33:40.644Z,7.10
2023-07-22T22:36:08.797Z,6.35
2023-07-22T22:38:36.844Z,5.85
2023-07-22T22:41:05.096Z,7.43
2023-07-22T22:43:33.183Z,6.00
2023-07-22T22:46:02.499Z,8.05
2023-07-22T22:48:30.482Z,7.90
2023-07-22T22:50:58.485Z,6.07
2023-07-22T22:53:26.492Z,5.95
2023-07-22T22:55:54.485Z,7.28
2023-07-22T22:58:22.866Z,6.57
2023-07-22T23:00:50.881Z,7.07
2023-07-22T23:03:20.328Z,6.28
2023-07-22T23:05:48.369Z,6.78
2023-07-22T23:08:16.477Z,6.28
2023-07-22T23:10:47.513Z,5.63
2023-07-22T23:13:15.579Z,6.65
2023-07-22T23:15:43.778Z,5.93
2023-07-22T23:18:11.774Z,6.55
2023-07-22T23:20:41.155Z,6.43
2023-07-22T23:23:09.175Z,6.28
2023-07-22T23:25:37.195Z,6.50
2023-07-22T23:28:05.267Z,6.65
2023-07-22T23:30:33.211Z,7.05
2023-07-22T23:33:01.243Z,7.13
2023-07-22T23:35:29.239Z,6.93
2023-07-22T23:37:58.736Z,7.47
2023-07-22T23:40:26.714Z,6.80
2023-07-22T23:42:54.814Z,7.05
2023-07-22T23:45:22.765Z,7.35
2023-07-22T23:47:50.908Z,6.15
2023-07-22T23:50:19.065Z,6.85
2023-07-22T23:52:47.066Z,6.40
2023-07-22T23:55:16.612Z,6.65
2023-07-22T23:57:44.615Z,6.93
